createdAt,value
2023-06-11T00:02:34.249Z,16.36
2023-06-11T00:05:05.384Z,16.18
2023-06-11T00:07:34.253Z,16.33
2023-06-11T00:10:04.594Z,16.12
2023-06-11T00:12:35.224Z,15.93
2023-06-11T00:15:04.137Z,15.71
2023-06-11T00:17:34.906Z,15.65
2023-06-11T00:20:05.139Z,15.71
2023-06-11T00:22:34.228Z,15.69
2023-06-11T00:25:02.995Z,15.63
2023-06-11T00:27:31.741Z,15.66
2023-06-11T00:30:02.613Z,15.70
2023-06-11T00:32:31.976Z,15.50
2023-06-11T00:35:02.507Z,15.41
2023-06-11T00:37:33.580Z,15.50
2023-06-11T00:40:02.675Z,15.69
2023-06-11T00:42:31.588Z,15.77
2023-06-11T00:45:02.648Z,15.50
2023-06-11T00:47:32.002Z,15.18
2023-06-11T00:50:03.573Z,15.28
2023-06-11T00:52:32.472Z,15.36
2023-06-11T00:55:01.949Z,15.38
2023-06-11T00:57:30.864Z,15.50
2023-06-11T01:00:02.041Z,15.56
2023-06-11T01:02:40.183Z,15.19
2023-06-11T01:05:14.085Z,15.08
2023-06-11T01:07:51.606Z,15.26
2023-06-11T01:10:28.025Z,14.98
2023-06-11T01:12:58.945Z,14.92
2023-06-11T01:15:28.758Z,14.97
2023-06-11T01:18:06.837Z,15.07
2023-06-11T01:20:46.441Z,15.07
2023-06-11T01:23:32.522Z,15.05
2023-06-11T01:26:43.570Z,14.88
2023-06-11T01:29:17.928Z,14.91
2023-06-11T01:31:47.638Z,14.89
2023-06-11T01:34:18.358Z,14.58
2023-06-11T01:36:49.645Z,14.56
2023-06-11T01:39:20.345Z,14.74
2023-06-11T01:42:01.260Z,14.55
2023-06-11T01:44:33.642Z,14.83
2023-06-11T01:47:02.607Z,14.72
2023-06-11T01:49:32.093Z,14.49
2023-06-11T01:52:00.944Z,14.40
2023-06-11T01:54:29.913Z,14.50
2023-06-11T01:56:58.750Z,14.32
2023-06-11T01:59:28.025Z,14.11
2023-06-11T02:01:58.364Z,14.12
2023-06-11T02:04:27.324Z,14.21
2023-06-11T02:06:56.729Z,14.25
2023-06-11T02:09:25.619Z,14.30
2023-06-11T02:11:54.706Z,14.22
2023-06-11T02:14:23.593Z,14.03
2023-06-11T02:16:52.889Z,14.25
2023-06-11T02:19:23.668Z,14.38
2023-06-11T02:21:52.636Z,14.07
2023-06-11T02:24:21.716Z,13.94
2023-06-11T02:26:50.695Z,14.01
2023-06-11T02:29:19.602Z,14.11
2023-06-11T02:31:48.749Z,13.86
2023-06-11T02:34:19.332Z,13.73
2023-06-11T02:36:50.269Z,13.78
2023-06-11T02:39:19.407Z,13.84
2023-06-11T02:41:48.265Z,13.58
2023-06-11T02:44:17.057Z,13.68
2023-06-11T02:46:45.874Z,13.87
2023-06-11T02:49:14.900Z,13.69
2023-06-11T02:51:43.737Z,13.53
2023-06-11T02:54:13.927Z,13.50
2023-06-11T02:56:43.004Z,13.35
2023-06-11T02:59:11.887Z,13.29
2023-06-11T03:01:41.768Z,13.54
2023-06-11T03:04:11.945Z,13.51
2023-06-11T03:06:41.737Z,13.28
2023-06-11T03:09:10.980Z,13.25
2023-06-11T03:11:41.272Z,13.43
2023-06-11T03:14:10.197Z,13.63
2023-06-11T03:16:39.193Z,13.55
2023-06-11T03:19:08.121Z,13.26
2023-06-11T03:21:37.594Z,13.14
2023-06-11T03:24:07.849Z,13.17
2023-06-11T03:26:36.864Z,13.29
2023-06-11T03:29:07.078Z,13.30
2023-06-11T03:31:45.136Z,13.21
2023-06-11T03:34:14.225Z,13.29
2023-06-11T03:36:43.031Z,13.32
2023-06-11T03:39:18.112Z,13.38
2023-06-11T03:41:49.622Z,13.29
2023-06-11T03:44:21.176Z,13.23
2023-06-11T03:46:50.308Z,13.08
2023-06-11T03:49:19.251Z,12.97
2023-06-11T03:51:48.229Z,13.04
2023-06-11T03:54:17.185Z,12.96
2023-06-11T03:56:46.603Z,13.27
2023-06-11T03:59:16.091Z,13.46
2023-06-11T04:01:47.273Z,13.56
2023-06-11T04:04:17.392Z,13.21
2023-06-11T04:06:48.289Z,12.96
2023-06-11T04:09:24.446Z,13.04
2023-06-11T04:11:53.546Z,13.11
2023-06-11T04:14:23.537Z,13.18
2023-06-11T04:16:54.437Z,13.19
2023-06-11T04:19:23.466Z,13.30
2023-06-11T04:21:54.452Z,13.35
2023-06-11T04:24:25.731Z,13.52
2023-06-11T04:26:54.888Z,13.63
2023-06-11T04:29:24.252Z,13.74
2023-06-11T04:32:22.572Z,13.52
2023-06-11T04:34:51.670Z,13.40
2023-06-11T04:37:21.486Z,13.55
2023-06-11T04:39:52.211Z,13.55
2023-06-11T04:42:21.613Z,13.34
2023-06-11T04:44:51.405Z,13.59
2023-06-11T04:47:23.940Z,13.58
2023-06-11T04:49:55.687Z,13.63
2023-06-11T04:52:27.937Z,13.71
2023-06-11T04:54:57.464Z,13.57
2023-06-11T04:57:26.859Z,13.53
2023-06-11T04:59:57.504Z,13.59
2023-06-11T05:02:29.772Z,13.48
2023-06-11T05:04:58.885Z,13.58
2023-06-11T05:07:28.867Z,13.53
2023-06-11T05:09:58.187Z,13.81
2023-06-11T05:12:27.497Z,13.79
2023-06-11T05:14:57.864Z,13.83
2023-06-11T05:17:30.462Z,13.93
2023-06-11T05:20:00.489Z,14.04
2023-06-11T05:22:31.363Z,14.11
2023-06-11T05:25:01.943Z,14.21
2023-06-11T05:27:35.318Z,14.37
2023-06-11T05:30:10.406Z,14.51
2023-06-11T05:32:45.678Z,14.45
2023-06-11T05:35:19.917Z,14.64
2023-06-11T05:37:50.687Z,14.56
2023-06-11T05:40:21.103Z,14.73
2023-06-11T05:42:50.273Z,14.75
2023-06-11T05:45:20.822Z,14.85
2023-06-11T05:47:51.525Z,15.02
2023-06-11T05:50:21.717Z,15.15
2023-06-11T05:52:51.721Z,15.27
2023-06-11T05:55:21.757Z,15.38
2023-06-11T05:57:50.869Z,15.49
2023-06-11T06:00:21.136Z,15.60
2023-06-11T06:02:56.787Z,15.68
2023-06-11T06:05:31.114Z,15.79
2023-06-11T06:08:00.059Z,15.89
2023-06-11T06:10:28.937Z,15.99
2023-06-11T06:12:58.073Z,16.11
2023-06-11T06:15:27.409Z,16.20
2023-06-11T06:17:58.121Z,16.30
2023-06-11T06:20:39.520Z,16.40
2023-06-11T06:23:08.307Z,16.53
2023-06-11T06:25:39.590Z,16.65
2023-06-11T06:28:11.803Z,16.76
2023-06-11T06:30:41.213Z,16.88
2023-06-11T06:33:13.330Z,16.97
2023-06-11T06:35:42.236Z,17.07
2023-06-11T06:38:11.166Z,17.19
2023-06-11T06:40:40.422Z,17.30
2023-06-11T06:43:09.665Z,17.38
2023-06-11T06:45:56.425Z,17.46
2023-06-11T06:48:39.355Z,17.55
2023-06-11T06:51:26.781Z,17.66
2023-06-11T06:53:55.643Z,17.76
2023-06-11T06:57:06.811Z,17.85
2023-06-11T06:59:35.809Z,17.94
2023-06-11T07:02:07.336Z,18.02
2023-06-11T07:04:41.424Z,18.03
2023-06-11T07:07:10.580Z,18.15
2023-06-11T07:09:41.113Z,18.26
2023-06-11T07:12:12.052Z,18.35
2023-06-11T07:14:41.105Z,18.41
2023-06-11T07:17:10.083Z,18.52
2023-06-11T07:23:13.885Z,18.78
2023-06-11T07:25:45.837Z,18.91
2023-06-11T07:28:15.587Z,18.97
2023-06-11T07:30:44.464Z,19.10
2023-06-11T07:33:13.683Z,19.20
2023-06-11T07:35:48.177Z,19.26
2023-06-11T07:38:21.978Z,19.35
2023-06-11T07:40:50.900Z,19.40
2023-06-11T07:43:19.877Z,19.53
2023-06-11T07:45:49.990Z,19.66
2023-06-11T07:48:21.387Z,19.75
2023-06-11T07:50:54.913Z,19.91
2023-06-11T07:53:26.778Z,19.90
2023-06-11T07:55:58.379Z,20.02
2023-06-11T07:58:27.528Z,20.18
2023-06-11T08:00:56.404Z,20.26
2023-06-11T08:03:25.270Z,20.31
2023-06-11T08:05:55.556Z,20.47
2023-06-11T08:08:24.319Z,20.48
2023-06-11T08:10:53.180Z,20.55
2023-06-11T08:13:23.132Z,20.62
2023-06-11T08:15:51.964Z,20.73
2023-06-11T08:18:20.949Z,20.85
2023-06-11T08:20:52.281Z,20.99
2023-06-11T08:23:28.373Z,20.96
2023-06-11T08:26:00.226Z,20.90
2023-06-11T08:28:29.490Z,20.93
2023-06-11T08:30:59.442Z,20.97
2023-06-11T08:33:28.398Z,21.09
2023-06-11T08:35:57.150Z,21.21
2023-06-11T08:38:29.452Z,21.26
2023-06-11T08:40:58.463Z,21.40
2023-06-11T08:43:27.343Z,21.55
2023-06-11T08:45:56.220Z,21.75
2023-06-11T08:48:30.350Z,21.81
2023-06-11T08:51:02.982Z,21.88
2023-06-11T08:53:33.335Z,21.95
2023-06-11T08:56:02.325Z,21.90
2023-06-11T08:58:35.957Z,21.92
2023-06-11T09:01:11.478Z,21.97
2023-06-11T09:03:45.073Z,22.07
2023-06-11T09:06:14.146Z,22.19
2023-06-11T09:08:44.307Z,22.19
2023-06-11T09:11:17.468Z,22.34
2023-06-11T09:13:46.952Z,22.33
2023-06-11T09:16:15.706Z,22.53
2023-06-11T09:18:45.995Z,22.74
2023-06-11T09:21:16.308Z,22.79
2023-06-11T09:23:48.042Z,22.98
2023-06-11T09:26:19.935Z,23.17
2023-06-11T09:28:51.713Z,23.21
2023-06-11T09:31:23.478Z,23.39
2023-06-11T09:33:55.525Z,23.47
2023-06-11T09:36:27.397Z,23.51
2023-06-11T09:38:57.889Z,23.69
2023-06-11T09:41:28.408Z,23.92
2023-06-11T09:44:12.972Z,24.03
2023-06-11T09:46:43.071Z,24.30
2023-06-11T09:49:14.468Z,24.58
2023-06-11T09:51:44.858Z,24.74
2023-06-11T09:54:15.990Z,24.99
2023-06-11T09:56:50.793Z,25.01
2023-06-11T09:59:21.983Z,25.31
2023-06-11T10:01:53.361Z,25.59
2023-06-11T10:04:22.619Z,25.62
2023-06-11T10:06:53.328Z,25.47
2023-06-11T10:09:24.340Z,25.61
2023-06-11T10:11:56.383Z,25.34
2023-06-11T10:14:26.576Z,25.03
2023-06-11T10:16:57.613Z,24.96
2023-06-11T10:19:36.248Z,25.25
2023-06-11T10:22:05.870Z,25.50
2023-06-11T10:24:36.296Z,25.76
2023-06-11T10:27:13.838Z,26.08
2023-06-11T10:29:44.626Z,26.45
2023-06-11T10:32:18.310Z,26.83
2023-06-11T10:34:49.973Z,27.04
2023-06-11T10:37:32.577Z,27.05
2023-06-11T10:40:02.799Z,26.97
2023-06-11T10:42:39.549Z,27.19
2023-06-11T10:45:10.512Z,27.00
2023-06-11T10:47:45.511Z,26.64
2023-06-11T10:50:16.940Z,26.40
2023-06-11T10:52:52.559Z,26.38
2023-06-11T10:55:26.250Z,26.41
2023-06-11T10:57:56.008Z,26.40
2023-06-11T11:00:34.656Z,26.27
2023-06-11T11:03:06.989Z,26.31
2023-06-11T11:05:36.171Z,26.43
2023-06-11T11:08:05.013Z,26.49
2023-06-11T11:10:35.602Z,26.26
2023-06-11T11:13:05.551Z,26.41
2023-06-11T11:15:34.275Z,26.84
2023-06-11T11:18:05.183Z,27.14
2023-06-11T11:20:34.682Z,27.08
2023-06-11T11:23:03.674Z,26.62
2023-06-11T11:25:33.589Z,26.76
2023-06-11T11:28:03.760Z,27.07
2023-06-11T11:30:32.512Z,27.31
2023-06-11T11:33:01.770Z,27.51
2023-06-11T11:35:31.041Z,27.14
2023-06-11T11:37:59.899Z,26.66
2023-06-11T11:40:30.454Z,26.51
2023-06-11T11:43:00.037Z,26.87
2023-06-11T11:45:35.919Z,27.36
2023-06-11T11:48:05.818Z,27.49
2023-06-11T11:50:35.753Z,27.97
2023-06-11T11:53:07.220Z,28.52
2023-06-11T11:55:51.660Z,28.93
2023-06-11T11:58:25.347Z,28.78
2023-06-11T12:00:58.010Z,28.87
2023-06-11T12:03:27.019Z,28.76
2023-06-11T12:06:01.364Z,28.73
2023-06-11T12:08:31.752Z,28.96
2023-06-11T12:11:02.292Z,29.32
2023-06-11T12:13:31.167Z,29.58
2023-06-11T12:16:04.561Z,29.43
2023-06-11T12:18:34.408Z,29.58
2023-06-11T12:21:03.345Z,29.49
2023-06-11T12:23:32.109Z,29.34
2023-06-11T12:26:02.611Z,29.36
2023-06-11T12:31:31.697Z,28.93
2023-06-11T12:34:00.442Z,28.96
2023-06-11T12:36:29.196Z,29.24
2023-06-11T12:38:57.864Z,29.57
2023-06-11T12:41:27.053Z,29.65
2023-06-11T12:43:55.824Z,30.12
2023-06-11T12:46:24.513Z,30.84
2023-06-11T12:48:54.713Z,30.86
2023-06-11T12:51:23.926Z,30.99
2023-06-11T12:53:53.991Z,30.99
2023-06-11T12:56:24.297Z,30.85
2023-06-11T12:58:53.198Z,30.90
2023-06-11T13:01:22.231Z,30.76
2023-06-11T13:03:51.074Z,30.59
2023-06-11T13:06:21.625Z,30.98
2023-06-11T13:08:51.712Z,30.85
2023-06-11T13:11:20.486Z,30.95
2023-06-11T13:13:49.190Z,31.48
2023-06-11T13:16:18.021Z,31.68
2023-06-11T13:18:47.273Z,32.06
2023-06-11T13:21:17.551Z,32.47
2023-06-11T13:23:47.740Z,32.53
2023-06-11T13:26:16.430Z,32.34
2023-06-11T13:28:45.266Z,32.03
2023-06-11T13:31:14.540Z,31.85
2023-06-11T13:33:43.885Z,32.21
2023-06-11T13:36:12.886Z,32.58
2023-06-11T13:38:42.652Z,32.91
2023-06-11T13:41:12.845Z,33.11
2023-06-11T13:43:41.548Z,32.83
2023-06-11T13:46:10.955Z,31.92
2023-06-11T13:48:39.693Z,31.96
2023-06-11T13:51:08.793Z,32.30
2023-06-11T13:53:37.514Z,33.18
2023-06-11T13:56:06.692Z,33.69
2023-06-11T13:58:36.926Z,34.34
2023-06-11T14:01:05.773Z,34.60
2023-06-11T14:03:34.570Z,34.86
2023-06-11T14:06:05.395Z,34.92
2023-06-11T14:08:34.097Z,35.20
2023-06-11T14:11:02.909Z,35.16
2023-06-11T14:13:31.597Z,35.41
2023-06-11T14:16:01.888Z,35.51
2023-06-11T14:18:30.725Z,35.34
2023-06-11T14:20:59.517Z,35.45
2023-06-11T14:23:28.416Z,35.85
2023-06-11T14:25:57.136Z,36.24
2023-06-11T14:28:25.869Z,36.31
2023-06-11T14:30:56.098Z,35.87
2023-06-11T14:33:26.739Z,36.11
2023-06-11T14:35:55.715Z,36.11
2023-06-11T14:38:24.384Z,36.57
2023-06-11T14:40:53.231Z,36.93
2023-06-11T14:43:24.218Z,37.17
2023-06-11T14:45:53.281Z,37.26
2023-06-11T14:48:23.147Z,37.34
2023-06-11T14:50:53.533Z,37.49
2023-06-11T14:53:22.921Z,37.70
2023-06-11T14:55:56.351Z,37.72
2023-06-11T14:58:25.350Z,37.26
2023-06-11T15:00:54.142Z,36.16
2023-06-11T15:03:22.917Z,35.34
2023-06-11T15:05:53.313Z,34.08
2023-06-11T15:08:22.002Z,33.05
2023-06-11T15:10:50.798Z,32.52
2023-06-11T15:13:19.449Z,32.05
2023-06-11T15:15:48.458Z,32.01
2023-06-11T15:18:17.180Z,32.40
2023-06-11T15:20:46.215Z,32.23
2023-06-11T15:23:16.385Z,32.08
2023-06-11T15:25:45.368Z,31.70
2023-06-11T15:28:14.186Z,31.24
2023-06-11T15:30:42.971Z,30.74
2023-06-11T15:33:11.871Z,30.48
2023-06-11T15:35:42.001Z,30.32
2023-06-11T15:38:11.257Z,29.88
2023-06-11T15:40:41.435Z,29.75
2023-06-11T15:43:12.108Z,29.72
2023-06-11T15:45:40.853Z,29.63
2023-06-11T15:48:09.613Z,29.59
2023-06-11T15:50:38.567Z,29.64
2023-06-11T15:53:07.237Z,29.72
2023-06-11T15:55:35.963Z,29.65
2023-06-11T15:58:08.891Z,29.53
2023-06-11T16:00:37.832Z,29.29
2023-06-11T16:03:06.821Z,29.23
2023-06-11T16:05:35.687Z,29.09
2023-06-11T16:08:04.580Z,29.03
2023-06-11T16:10:34.092Z,29.02
2023-06-11T16:13:11.897Z,28.94
2023-06-11T16:15:47.811Z,28.85
2023-06-11T16:18:21.274Z,28.66
2023-06-11T16:20:51.183Z,28.53
2023-06-11T16:23:20.389Z,28.38
2023-06-11T16:25:58.186Z,28.27
2023-06-11T16:28:29.643Z,28.26
2023-06-11T16:30:58.512Z,28.17
2023-06-11T16:33:30.874Z,27.88
2023-06-11T16:36:07.644Z,27.79
2023-06-11T16:38:36.475Z,27.71
2023-06-11T16:41:06.375Z,27.78
2023-06-11T16:43:36.730Z,27.73
2023-06-11T16:46:05.904Z,27.60
2023-06-11T16:48:35.794Z,27.49
2023-06-11T16:51:04.674Z,27.37
2023-06-11T16:53:33.474Z,27.34
2023-06-11T16:56:02.567Z,27.27
2023-06-11T16:58:32.745Z,27.21
2023-06-11T17:01:16.431Z,27.26
2023-06-11T17:03:48.046Z,27.24
2023-06-11T17:06:18.016Z,27.15
2023-06-11T17:08:46.970Z,27.12
2023-06-11T17:11:15.696Z,27.04
2023-06-11T17:13:44.383Z,26.90
2023-06-11T17:16:14.898Z,26.85
2023-06-11T17:18:43.880Z,26.77
2023-06-11T17:21:13.675Z,26.75
2023-06-11T17:23:45.172Z,26.72
2023-06-11T17:26:16.435Z,26.67
2023-06-11T17:28:49.608Z,26.58
2023-06-11T17:31:21.099Z,26.54
2023-06-11T17:33:50.229Z,26.51
2023-06-11T17:36:19.883Z,26.49
2023-06-11T17:38:48.720Z,26.38
2023-06-11T17:41:17.961Z,26.34
2023-06-11T17:43:47.460Z,26.32
2023-06-11T17:46:21.042Z,26.28
2023-06-11T17:48:51.249Z,26.29
2023-06-11T17:51:20.416Z,26.20
2023-06-11T17:53:49.882Z,26.18
2023-06-11T17:56:19.986Z,26.12
2023-06-11T17:58:49.081Z,26.08
2023-06-11T18:01:21.651Z,26.01
2023-06-11T18:03:52.215Z,25.87
2023-06-11T18:06:54.238Z,25.76
2023-06-11T18:09:23.026Z,25.81
2023-06-11T18:11:53.187Z,25.67
2023-06-11T18:14:23.657Z,25.70
2023-06-11T18:16:56.179Z,25.67
2023-06-11T18:19:27.132Z,25.64
2023-06-11T18:21:56.069Z,25.56
2023-06-11T18:24:29.404Z,25.49
2023-06-11T18:26:59.376Z,25.37
2023-06-11T18:29:29.317Z,25.33
2023-06-11T18:32:02.157Z,25.26
2023-06-11T18:34:32.453Z,25.17
2023-06-11T18:37:01.365Z,24.99
2023-06-11T18:39:31.412Z,24.87
2023-06-11T18:42:14.976Z,24.76
2023-06-11T18:44:45.655Z,24.70
2023-06-11T18:47:18.400Z,24.38
2023-06-11T18:49:47.492Z,24.51
2023-06-11T18:52:17.933Z,24.34
2023-06-11T18:54:48.388Z,24.37
2023-06-11T18:57:20.912Z,24.21
2023-06-11T18:59:49.654Z,24.05
2023-06-11T19:02:22.371Z,23.93
2023-06-11T19:04:51.187Z,23.96
2023-06-11T19:07:20.375Z,23.74
2023-06-11T19:09:49.134Z,23.48
2023-06-11T19:12:17.841Z,23.29
2023-06-11T19:14:48.567Z,23.19
2023-06-11T19:17:18.650Z,23.10
2023-06-11T19:19:48.847Z,23.09
2023-06-11T19:22:17.654Z,22.97
2023-06-11T19:24:46.477Z,22.88
2023-06-11T19:32:36.419Z,22.54
2023-06-11T19:35:08.342Z,22.34
2023-06-11T19:37:37.116Z,22.27
2023-06-11T19:40:08.149Z,22.19
2023-06-11T19:42:37.102Z,22.13
2023-06-11T19:45:10.201Z,22.14
2023-06-11T19:47:39.384Z,21.86
2023-06-11T19:50:12.383Z,21.85
2023-06-11T19:53:24.748Z,21.86
2023-06-11T19:56:20.162Z,21.87
2023-06-11T19:58:49.247Z,21.64
2023-06-11T20:01:18.561Z,21.54
2023-06-11T20:03:47.391Z,21.39
2023-06-11T20:06:18.188Z,21.45
2023-06-11T20:08:51.757Z,21.38
2023-06-11T20:11:22.227Z,21.23
2023-06-11T20:13:51.110Z,21.06
2023-06-11T20:16:19.881Z,21.10
2023-06-11T20:18:48.745Z,21.22
2023-06-11T20:21:37.278Z,21.03
2023-06-11T20:24:08.736Z,20.99
2023-06-11T20:26:44.179Z,20.82
2023-06-11T20:29:13.770Z,20.83
2023-06-11T20:31:42.782Z,20.88
2023-06-11T20:36:33.730Z,20.54
2023-06-11T20:45:27.551Z,20.39
2023-06-11T20:48:04.580Z,20.23
2023-06-11T20:50:33.502Z,20.25
2023-06-11T20:53:02.631Z,20.13
2023-06-11T20:55:32.802Z,20.05
2023-06-11T20:58:10.914Z,19.92
2023-06-11T21:00:40.056Z,19.60
2023-06-11T21:03:37.454Z,19.72
2023-06-11T21:07:05.571Z,19.53
2023-06-11T21:09:34.388Z,19.50
2023-06-11T21:12:06.703Z,19.42
2023-06-11T21:14:35.446Z,19.16
2023-06-11T21:17:04.420Z,18.96
2023-06-11T21:19:33.395Z,19.05
2023-06-11T21:22:02.293Z,19.15
2023-06-11T21:24:31.099Z,19.16
2023-06-11T21:30:46.332Z,18.59
2023-06-11T21:36:08.832Z,18.52
2023-06-11T21:38:37.700Z,18.68
2023-06-11T21:41:44.744Z,18.51
2023-06-11T21:44:16.959Z,18.40
2023-06-11T21:47:15.711Z,18.46
2023-06-11T21:50:11.059Z,18.26
2023-06-11T21:55:43.884Z,18.07
2023-06-11T22:01:41.469Z,18.19
2023-06-11T22:04:20.832Z,17.91
2023-06-11T22:06:54.101Z,17.66
2023-06-11T22:09:36.201Z,17.53
2023-06-11T22:12:07.600Z,17.55
2023-06-11T22:14:38.092Z,17.58
2023-06-11T22:17:08.791Z,17.65
2023-06-11T22:19:39.879Z,17.69
2023-06-11T22:22:12.199Z,17.73
2023-06-11T22:24:41.788Z,17.58
2023-06-11T22:27:13.402Z,17.71
2023-06-11T22:29:42.346Z,17.69
2023-06-11T22:32:16.531Z,17.43
2023-06-11T22:34:46.726Z,17.29
2023-06-11T22:37:15.497Z,17.10
2023-06-11T22:39:44.279Z,17.00
2023-06-11T22:42:13.379Z,17.08
2023-06-11T22:44:42.468Z,16.97
2023-06-11T22:47:12.117Z,16.81
2023-06-11T22:49:41.474Z,16.73
2023-06-11T22:52:12.688Z,16.63
2023-06-11T22:54:41.461Z,16.67
2023-06-11T22:57:10.192Z,16.54
2023-06-11T22:59:38.918Z,16.47
2023-06-11T23:02:07.774Z,16.40
2023-06-11T23:04:36.653Z,16.27
2023-06-11T23:07:06.121Z,16.21
2023-06-11T23:09:36.300Z,16.36
2023-06-11T23:12:06.228Z,16.63
2023-06-11T23:14:35.225Z,16.42
2023-06-11T23:17:05.111Z,16.23
2023-06-11T23:19:34.528Z,16.07
2023-06-11T23:22:03.336Z,16.08
2023-06-11T23:24:32.607Z,16.25
2023-06-11T23:27:04.410Z,16.02
2023-06-11T23:29:33.864Z,16.09
2023-06-11T23:32:02.972Z,15.89
2023-06-11T23:34:31.881Z,15.84
2023-06-11T23:37:00.992Z,15.84
2023-06-11T23:39:30.493Z,16.04
2023-06-11T23:41:59.272Z,16.05
2023-06-11T23:44:29.716Z,15.95
2023-06-11T23:46:58.425Z,15.73
2023-06-11T23:49:27.131Z,15.56
2023-06-11T23:51:56.303Z,15.44
2023-06-11T23:54:25.275Z,15.43
2023-06-11T23:56:54.573Z,15.44
2023-06-11T23:59:23.381Z,15.49
